Time;durP1;ratioP1;P1;durP2;ratioP2;P2;SDS_P1;SDS_P2;PMS_P1;PMS_P2;Temp;Humidity;BMP_temperature;BMP_pressure;BME280_temperature;BME280_humidity;BME280_pressure;Samples;Min_cycle;Max_cycle;Signal;HPM_P1;HPM_P2
2023/05/23 00:00:08;;;;;;;6.40;2.83;;;;;;;10.71;100.00;63099.53;4968780;29;20207;-77
2023/05/23 00:02:35;;;;;;;6.38;3.80;;;;;;;10.60;100.00;63096.28;4965383;29;20236;-77
2023/05/23 00:05:02;;;;;;;4.72;3.28;;;;;;;10.67;100.00;63097.91;4966845;29;20388;-79
2023/05/23 00:07:32;;;;;;;3.58;3.10;;;;;;;10.67;100.00;63097.91;4967476;28;20221;-79
2023/05/23 00:09:59;;;;;;;3.85;3.55;;;;;;;10.62;100.00;63095.81;4968358;29;20280;-76
2023/05/23 00:12:26;;;;;;;3.38;3.05;;;;;;;10.64;100.00;63097.88;4968007;29;20240;-79
2023/05/23 00:14:54;;;;;;;7.18;3.30;;;;;;;10.62;100.00;63095.81;4964096;29;20292;-77
2023/05/23 00:17:24;;;;;;;3.88;3.58;;;;;;;10.59;100.00;63087.09;4969413;29;20221;-76
2023/05/23 00:19:51;;;;;;;3.22;3.03;;;;;;;10.63;100.00;63093.78;4966516;29;20215;-77
2023/05/23 00:22:18;;;;;;;5.45;3.90;;;;;;;10.61;100.00;63091.72;4968293;28;20257;-78
2023/05/23 00:24:47;;;;;;;4.38;3.05;;;;;;;10.61;100.00;63097.34;4966343;29;20257;-78
2023/05/23 00:27:14;;;;;;;3.40;3.13;;;;;;;10.60;100.00;63093.22;4967857;28;20531;-77
2023/05/23 00:29:42;;;;;;;3.63;3.33;;;;;;;10.56;100.00;63084.50;4968538;29;20220;-79
2023/05/23 00:32:08;;;;;;;4.40;4.05;;;;;;;10.51;100.00;63081.38;4968684;28;20260;-77
2023/05/23 00:34:36;;;;;;;3.20;3.05;;;;;;;10.57;100.00;63090.13;4949199;29;20209;-77
2023/05/23 00:37:05;;;;;;;3.70;2.72;;;;;;;10.52;100.00;63090.56;4977639;28;20231;-77
2023/05/23 00:39:33;;;;;;;4.22;3.83;;;;;;;10.51;100.00;63084.41;4967291;29;20212;-78
2023/05/23 00:42:05;;;;;;;3.83;3.20;;;;;;;10.54;100.00;63087.03;4959195;28;20456;-78
2023/05/23 00:44:32;;;;;;;3.83;3.53;;;;;;;10.51;100.00;63084.41;4951595;29;20245;-78
2023/05/23 00:47:00;;;;;;;5.53;3.30;;;;;;;10.51;100.00;63083.91;4961298;28;20262;-78
2023/05/23 00:49:27;;;;;;;3.88;3.55;;;;;;;10.58;100.00;63091.16;4968070;29;20223;-77
2023/05/23 00:51:55;;;;;;;7.47;3.65;;;;;;;10.57;100.00;63090.13;4966823;28;20538;-78
2023/05/23 00:54:27;;;;;;;4.05;3.75;;;;;;;10.51;100.00;63083.91;4966438;29;20239;-77
2023/05/23 00:56:54;;;;;;;4.00;3.70;;;;;;;10.51;100.00;63078.81;4964010;28;20212;-77
2023/05/23 00:59:24;;;;;;;5.95;4.10;;;;;;;10.58;100.00;63089.13;4966640;29;20201;-76
2023/05/23 01:01:53;;;;;;;5.60;3.88;;;;;;;10.59;100.00;63092.19;4969441;29;20536;-76
2023/05/23 01:04:25;;;;;;;5.15;3.90;;;;;;;10.62;100.00;63093.28;4965806;29;20208;-78
2023/05/23 01:06:53;;;;;;;4.38;4.00;;;;;;;10.62;100.00;63095.28;4967296;28;20220;-77
2023/05/23 01:09:23;;;;;;;6.20;4.10;;;;;;;10.69;100.00;63103.06;4966279;28;20208;-76
2023/05/23 01:12:08;;;;;;;4.28;3.80;;;;;;;10.63;100.00;63094.28;4967388;28;20225;-79
2023/05/23 01:14:43;;;;;;;4.55;4.25;;;;;;;10.65;100.00;63093.81;4965040;29;20200;-77
2023/05/23 01:17:16;;;;;;;5.40;4.13;;;;;;;10.66;100.00;63096.88;4970754;28;20231;-78
2023/05/23 01:19:59;;;;;;;5.13;4.53;;;;;;;10.67;100.00;63098.44;4961334;29;20200;-79
2023/05/23 01:22:40;;;;;;;5.65;4.97;;;;;;;10.69;100.00;63105.59;4964774;29;20291;-77
2023/05/23 01:25:17;;;;;;;5.43;4.95;;;;;;;10.67;100.00;63103.53;4966584;29;20196;-78
2023/05/23 01:27:51;;;;;;;4.97;4.57;;;;;;;10.68;100.00;63104.06;4963061;29;20224;-80
2023/05/23 01:30:19;;;;;;;7.68;4.65;;;;;;;10.67;100.00;63098.44;4968405;29;20193;-77
2023/05/23 01:32:48;;;;;;;5.93;4.07;;;;;;;10.71;100.00;63102.59;4967962;29;20280;-76
2023/05/23 01:35:20;;;;;;;4.70;4.30;;;;;;;10.73;100.00;63106.69;4975090;28;20202;-76
2023/05/23 01:37:47;;;;;;;5.25;4.85;;;;;;;10.73;100.00;63104.66;4965202;29;20235;-78
2023/05/23 01:40:14;;;;;;;4.43;4.03;;;;;;;10.72;100.00;63106.16;4963901;29;20216;-77
2023/05/23 01:42:41;;;;;;;4.63;4.32;;;;;;;10.77;100.00;63108.28;4967091;29;20231;-81
2023/05/23 01:45:11;;;;;;;5.15;4.60;;;;;;;10.81;100.00;63114.97;4971117;28;20224;-77
2023/05/23 01:47:40;;;;;;;4.50;4.20;;;;;;;10.80;100.00;63109.38;4987291;28;20228;-79
2023/05/23 01:50:09;;;;;;;4.30;3.90;;;;;;;10.82;100.00;63116.00;4973514;28;20220;-78
2023/05/23 01:52:36;;;;;;;5.70;4.28;;;;;;;10.87;100.00;63118.63;4967457;29;20276;-78
2023/05/23 01:55:08;;;;;;;4.63;4.22;;;;;;;10.76;100.00;63109.78;4967470;28;20208;-77
2023/05/23 01:57:36;;;;;;;5.22;4.68;;;;;;;10.82;100.00;63116.50;4952497;29;20239;-77
2023/05/23 02:00:06;;;;;;;5.50;5.00;;;;;;;10.81;100.00;63112.41;4967116;29;20209;-77
2023/05/23 02:02:35;;;;;;;6.13;5.63;;;;;;;10.79;100.00;63113.41;4970876;29;20220;-76
2023/05/23 05:02:03;;;;;;;12.68;11.20;;;;;;;12.02;100.00;63239.78;5875968;22;1993217;-79
2023/05/23 05:04:29;;;;;;;14.20;11.40;;;;;;;12.27;100.00;63266.22;6110335;23;20195;-78
2023/05/23 05:06:56;;;;;;;15.90;12.75;;;;;;;11.99;100.00;63236.69;6113076;23;20234;-77
2023/05/23 05:09:24;;;;;;;23.50;13.15;;;;;;;11.95;100.00;63230.50;6111990;23;20184;-78
2023/05/23 05:11:51;;;;;;;30.15;15.65;;;;;;;11.94;100.00;63232.03;6109176;23;20192;-78
2023/05/23 05:14:21;;;;;;;39.60;15.30;;;;;;;11.89;100.00;63226.84;6109949;23;20180;-78
2023/05/23 05:16:49;;;;;;;29.95;15.48;;;;;;;12.14;100.00;63249.69;6108187;23;20191;-77
2023/05/23 05:19:17;;;;;;;27.83;14.02;;;;;;;12.32;100.00;63268.84;6112689;23;20204;-78
2023/05/23 05:21:44;;;;;;;30.58;14.15;;;;;;;12.55;100.00;63294.75;6113587;23;20192;-79
2023/05/23 05:24:11;;;;;;;22.35;14.45;;;;;;;12.72;100.00;63302.66;6113801;23;20160;-79
2023/05/23 05:26:38;;;;;;;20.77;14.20;;;;;;;13.01;100.00;63339.38;6109788;23;20192;-80
2023/05/23 05:29:06;;;;;;;21.38;14.48;;;;;;;13.21;100.00;63365.25;6110526;23;20172;-79
2023/05/23 05:31:32;;;;;;;23.70;14.82;;;;;;;13.35;100.00;63379.78;6110154;23;20216;-78
2023/05/23 05:33:59;;;;;;;30.33;13.52;;;;;;;13.25;100.00;63364.28;6109920;23;20173;-78
2023/05/23 05:36:28;;;;;;;26.23;14.30;;;;;;;13.18;100.00;63360.09;6110303;23;20510;-78
2023/05/23 05:38:55;;;;;;;22.52;14.25;;;;;;;12.99;100.00;63334.75;6111345;23;20520;-78
2023/05/23 05:41:22;;;;;;;25.02;13.50;;;;;;;13.10;100.00;63348.75;6112402;23;20424;-79
2023/05/23 05:43:49;;;;;;;22.38;13.93;;;;;;;13.36;100.00;63375.69;6109914;23;20193;-78
2023/05/23 05:46:16;;;;;;;22.42;13.80;;;;;;;13.65;100.00;63408.38;6111075;23;20200;-78
2023/05/23 05:48:45;;;;;;;21.48;13.82;;;;;;;13.92;100.00;63431.25;6111550;23;20227;-79
2023/05/23 05:51:12;;;;;;;18.55;13.68;;;;;;;14.26;100.00;63471.69;6109984;23;20192;-79
2023/05/23 05:53:42;;;;;;;20.40;13.50;;;;;;;14.52;100.00;63498.19;6111722;23;20171;-78
2023/05/23 05:56:09;;;;;;;22.52;13.70;;;;;;;14.42;100.00;63483.19;6114996;23;20224;-78
2023/05/23 05:58:36;;;;;;;15.98;12.32;;;;;;;14.40;100.00;63485.72;6113954;23;20204;-78
2023/05/23 06:01:04;;;;;;;17.52;11.45;;;;;;;14.53;100.00;63504.84;6110462;23;20244;-81
2023/05/23 06:03:32;;;;;;;16.30;13.38;;;;;;;14.82;100.00;63524.22;6135081;23;20183;-79
2023/05/23 06:05:59;;;;;;;17.55;11.48;;;;;;;14.36;100.00;63482.06;6140579;23;20179;-79
2023/05/23 06:08:26;;;;;;;13.85;11.60;;;;;;;14.04;100.00;63450.88;6137847;23;20211;-78
2023/05/23 06:10:55;;;;;;;17.20;13.07;;;;;;;13.91;100.00;63433.28;6138837;23;20187;-78
2023/05/23 06:13:22;;;;;;;20.95;13.63;;;;;;;13.94;100.00;63436.41;6138450;23;20522;-79
2023/05/23 06:15:50;;;;;;;16.20;13.43;;;;;;;13.93;100.00;63434.34;6142074;23;20183;-79
2023/05/23 06:18:17;;;;;;;18.00;12.65;;;;;;;14.08;100.00;63450.41;6142984;23;20187;-79
2023/05/23 06:20:44;;;;;;;14.98;12.27;;;;;;;14.31;100.00;63473.81;6139816;23;20211;-80
2023/05/23 06:23:11;;;;;;;17.40;12.65;;;;;;;14.23;100.00;63466.00;6140591;23;20224;-80
2023/05/23 06:25:38;;;;;;;16.35;12.43;;;;;;;14.24;100.00;63474.19;6140858;23;20164;-78
2023/05/23 06:28:07;;;;;;;18.00;13.07;;;;;;;14.25;100.00;63470.66;6140457;23;20230;-80
2023/05/23 06:30:34;;;;;;;18.85;13.15;;;;;;;14.39;100.00;63482.63;6141596;23;20171;-79
2023/05/23 06:33:02;;;;;;;23.30;14.35;;;;;;;14.49;100.00;63495.59;6142968;23;20246;-78
2023/05/23 06:35:29;;;;;;;19.08;14.02;;;;;;;14.62;100.00;63506.00;6142302;23;20193;-78
2023/05/23 06:37:56;;;;;;;20.08;14.00;;;;;;;14.52;100.00;63496.13;6139535;23;20195;-78
2023/05/23 06:40:23;;;;;;;23.77;15.75;;;;;;;14.37;100.00;63480.56;6140177;23;20198;-78
2023/05/23 06:42:51;;;;;;;23.40;14.93;;;;;;;14.51;100.00;63497.16;6140094;23;20257;-78
2023/05/23 06:45:19;;;;;;;23.85;15.65;;;;;;;14.57;100.00;63501.31;6143072;23;20172;-79
2023/05/23 06:47:47;;;;;;;20.00;14.60;;;;;;;14.78;100.00;63523.16;6141917;23;20620;-77
2023/05/23 06:50:13;;;;;;;24.85;15.75;;;;;;;14.94;100.00;63547.44;6141069;23;20168;-79
2023/05/23 06:52:42;;;;;;;20.23;13.82;;;;;;;15.10;100.00;63558.44;6139359;23;20202;-78
2023/05/23 06:55:13;;;;;;;23.33;14.27;;;;;;;15.06;100.00;63549.66;6140099;23;20175;-77
2023/05/23 06:57:40;;;;;;;23.38;13.60;;;;;;;14.90;100.00;63540.22;6139402;23;20197;-78
2023/05/23 07:00:08;;;;;;;21.73;13.07;;;;;;;15.03;100.00;63548.59;6143248;23;20254;-78
2023/05/23 07:02:36;;;;;;;13.95;10.98;;;;;;;15.00;100.00;63546.00;6137359;23;20227;-78
2023/05/23 07:05:03;;;;;;;17.30;13.10;;;;;;;15.19;100.00;63564.69;6139092;23;20171;-78
2023/05/23 07:07:31;;;;;;;14.80;11.73;;;;;;;15.44;100.00;63591.22;6141316;23;20195;-78
2023/05/23 07:09:58;;;;;;;14.00;11.40;;;;;;;15.71;100.00;63618.75;6141215;23;20231;-79
2023/05/23 07:12:24;;;;;;;13.95;12.10;;;;;;;15.86;100.00;63634.34;6141991;23;20255;-78
2023/05/23 07:14:51;;;;;;;14.02;11.68;;;;;;;16.08;100.00;63662.91;6139717;23;20218;-78
2023/05/23 07:17:19;;;;;;;15.80;11.25;;;;;;;16.19;100.00;63671.25;6140490;23;20287;-78
2023/05/23 07:19:48;;;;;;;18.15;10.98;;;;;;;16.31;100.00;63686.28;6141286;23;20195;-78
2023/05/23 07:22:16;;;;;;;12.38;9.38;;;;;;;16.51;100.00;63704.56;6142011;23;20239;-78
2023/05/23 07:24:42;;;;;;;15.77;9.68;;;;;;;16.61;100.00;63717.53;6144090;23;20184;-79
2023/05/23 07:27:09;;;;;;;12.38;9.23;;;;;;;16.82;100.00;63736.81;6142416;23;20205;-79
2023/05/23 07:29:36;;;;;;;14.52;10.05;;;;;;;16.99;100.00;63751.94;6140875;23;20222;-78
2023/05/23 07:32:04;;;;;;;11.95;9.43;;;;;;;17.21;100.00;63777.41;6140880;23;20210;-78
2023/05/23 07:34:31;;;;;;;12.32;9.85;;;;;;;17.37;100.00;63793.00;6141851;23;20260;-80
2023/05/23 07:37:00;;;;;;;17.58;10.40;;;;;;;17.40;100.00;63796.13;6141416;23;20198;-80
2023/05/23 07:39:27;;;;;;;11.30;9.90;;;;;;;17.48;100.00;63807.06;6145096;23;20249;-79
2023/05/23 07:41:54;;;;;;;16.83;10.90;;;;;;;17.55;100.00;63814.88;6144805;23;20198;-79
2023/05/23 07:44:21;;;;;;;17.48;11.95;;;;;;;17.60;100.00;63811.84;6143378;23;20222;-78
2023/05/23 07:46:49;;;;;;;17.75;11.90;;;;;;;17.58;100.00;63817.47;6138247;23;20195;-79
2023/05/23 07:49:16;;;;;;;20.30;11.80;;;;;;;17.41;100.00;63797.72;6136799;23;20179;-79
2023/05/23 07:51:43;;;;;;;14.63;11.50;;;;;;;17.64;100.00;63824.25;6135884;23;20194;-79
2023/05/23 07:54:11;;;;;;;16.17;10.07;;;;;;;17.84;100.00;63842.50;6139689;23;20179;-78
2023/05/23 07:56:39;;;;;;;10.95;9.80;;;;;;;17.78;100.00;63835.72;6135673;23;20226;-80
2023/05/23 07:59:07;;;;;;;16.45;10.52;;;;;;;17.99;100.00;63860.72;6136014;23;20198;-80
2023/05/23 08:01:34;;;;;;;11.73;9.32;;;;;;;18.11;100.00;63875.78;6137848;23;20249;-79
2023/05/23 08:04:02;;;;;;;9.48;8.57;;;;;;;18.15;100.00;63876.84;6141098;23;20163;-80
2023/05/23 08:06:30;;;;;;;15.18;8.57;;;;;;;18.27;100.00;63884.72;6141035;23;20401;-80
2023/05/23 08:08:57;;;;;;;9.95;7.70;;;;;;;18.31;100.00;63888.88;6144145;23;20174;-78
2023/05/23 08:11:29;;;;;;;17.23;8.15;;;;;;;18.42;100.00;63900.38;6144624;23;20270;-78
2023/05/23 08:13:56;;;;;;;9.70;8.35;;;;;;;18.41;99.12;63898.81;6141135;23;20172;-77
2023/05/23 08:16:22;;;;;;;8.80;7.28;;;;;;;18.51;98.25;63911.81;6141441;23;20229;-79
2023/05/23 08:18:50;;;;;;;14.02;8.00;;;;;;;18.42;97.33;63902.94;6142363;23;20234;-79
2023/05/23 08:21:17;;;;;;;12.60;6.75;;;;;;;18.52;99.74;63915.41;6141863;23;20660;-79
2023/05/23 08:23:45;;;;;;;9.90;7.13;;;;;;;18.68;99.35;63926.41;6143480;23;20167;-79
2023/05/23 08:26:12;;;;;;;8.88;7.03;;;;;;;18.90;97.56;63955.03;6142857;23;20193;-78
2023/05/23 08:28:40;;;;;;;8.80;6.13;;;;;;;18.95;96.24;63960.25;6143006;23;20185;-80
2023/05/23 08:31:07;;;;;;;10.45;6.22;;;;;;;19.19;94.26;63987.84;6142430;23;20221;-82
2023/05/23 08:33:34;;;;;;;10.13;6.32;;;;;;;19.39;91.06;64003.56;6142253;23;20175;-79
2023/05/23 08:36:02;;;;;;;9.88;6.00;;;;;;;19.58;90.91;64022.31;6144357;23;20206;-80
2023/05/23 08:38:30;;;;;;;8.02;5.68;;;;;;;19.50;84.68;64017.09;6140921;23;20230;-78
2023/05/23 08:41:02;;;;;;;7.25;5.55;;;;;;;19.32;83.28;63995.75;6142338;23;20207;-79
2023/05/23 08:43:29;;;;;;;6.55;5.82;;;;;;;19.48;83.97;64009.84;6141302;23;20162;-81
2023/05/23 08:45:59;;;;;;;9.30;5.95;;;;;;;19.49;85.19;64011.41;6143499;23;20167;-79
2023/05/23 08:48:28;;;;;;;8.23;5.05;;;;;;;19.79;86.86;64044.22;6142051;23;20218;-80
2023/05/23 08:50:55;;;;;;;5.38;4.72;;;;;;;20.01;86.61;64067.19;6144190;23;20170;-78
2023/05/23 08:53:27;;;;;;;5.40;4.88;;;;;;;20.17;77.43;64081.81;6143186;23;20167;-79
2023/05/23 08:55:57;;;;;;;4.65;4.13;;;;;;;20.30;72.83;64100.03;6144267;23;20175;-81
2023/05/23 08:58:28;;;;;;;4.22;3.55;;;;;;;20.33;65.19;64101.13;6142149;23;20272;-80
2023/05/23 09:00:55;;;;;;;8.52;3.65;;;;;;;20.30;62.80;64100.03;6142425;23;20228;-81
2023/05/23 09:03:26;;;;;;;4.45;3.95;;;;;;;20.05;55.61;64071.88;6140337;23;20358;-81
2023/05/23 09:05:54;;;;;;;3.83;3.53;;;;;;;20.23;60.80;64092.75;6143022;23;20208;-80
2023/05/23 09:08:25;;;;;;;5.75;4.28;;;;;;;20.07;63.20;64070.88;6142925;23;20183;-80
2023/05/23 09:10:52;;;;;;;5.43;4.45;;;;;;;20.16;65.89;64082.84;6142284;23;20349;-81
2023/05/23 09:13:20;;;;;;;4.22;3.72;;;;;;;20.30;63.21;64097.47;6144187;23;20218;-80
2023/05/23 09:15:58;;;;;;;6.75;4.32;;;;;;;20.55;64.31;64123.56;6141525;23;20170;-80
2023/05/23 09:18:27;;;;;;;4.63;4.00;;;;;;;20.73;56.82;64144.41;6142664;23;20198;-79
2023/05/23 09:20:55;;;;;;;3.95;3.55;;;;;;;20.81;52.71;64153.28;6140807;23;20201;-79
2023/05/23 09:23:22;;;;;;;3.33;3.03;;;;;;;20.76;54.12;64148.06;6144139;23;20178;-80
2023/05/23 09:25:49;;;;;;;5.15;3.40;;;;;;;20.84;57.23;64159.00;6140596;23;20459;-81
2023/05/23 09:28:16;;;;;;;3.95;3.67;;;;;;;21.07;56.20;64177.84;6140960;23;20167;-79
2023/05/23 09:30:43;;;;;;;3.55;3.33;;;;;;;21.25;52.37;64199.25;6141206;23;20174;-80
2023/05/23 09:33:11;;;;;;;3.55;3.33;;;;;;;21.22;50.65;64195.59;6140989;23;20422;-80
2023/05/23 09:35:46;;;;;;;3.72;3.53;;;;;;;21.38;51.52;64212.31;6141007;23;20167;-81
2023/05/23 09:38:13;;;;;;;3.53;3.10;;;;;;;21.16;51.70;64192.44;6142742;23;20202;-80
2023/05/23 09:40:45;;;;;;;8.07;3.42;;;;;;;21.05;51.18;64177.84;6141510;23;20206;-81
2023/05/23 09:43:12;;;;;;;3.83;3.53;;;;;;;21.06;52.41;64181.47;6143643;23;20163;-80
2023/05/23 09:45:39;;;;;;;4.68;3.60;;;;;;;21.14;52.46;64187.75;6141602;23;20221;-81
2023/05/23 09:48:12;;;;;;;3.75;3.55;;;;;;;21.33;49.57;64207.59;6140444;23;20206;-81
2023/05/23 09:50:41;;;;;;;6.38;4.28;;;;;;;21.01;52.69;64171.59;6142969;23;20401;-82
2023/05/23 09:53:09;;;;;;;5.13;4.20;;;;;;;21.17;52.95;64188.31;6143400;23;20187;-81
2023/05/23 09:55:36;;;;;;;3.50;3.30;;;;;;;21.33;52.48;64204.50;6141349;23;20182;-81
2023/05/23 09:58:04;;;;;;;6.13;3.88;;;;;;;21.36;48.03;64205.03;6142129;23;20201;-81
2023/05/23 10:00:32;;;;;;;4.40;3.30;;;;;;;21.21;46.67;64195.06;6141551;23;20207;-78
2023/05/23 10:03:09;;;;;;;3.83;2.80;;;;;;;20.84;47.25;64153.31;6140999;23;20202;-79
2023/05/23 10:05:41;;;;;;;3.33;3.03;;;;;;;20.76;46.70;64145.47;6144741;23;20167;-80
2023/05/23 10:08:14;;;;;;;8.30;3.25;;;;;;;20.75;49.14;64143.91;6141882;23;20376;-81
2023/05/23 10:11:32;;;;;;;6.00;3.33;;;;;;;20.97;47.71;64164.81;6141694;23;20178;-80
2023/05/23 10:14:02;;;;;;;3.55;3.28;;;;;;;20.70;49.41;64144.38;6140347;23;20170;-80
2023/05/23 10:16:39;;;;;;;3.83;3.55;;;;;;;21.02;51.69;64175.22;6142090;23;20250;-80
2023/05/23 10:19:10;;;;;;;3.40;3.10;;;;;;;21.15;48.41;64185.69;6144744;23;20250;-80
2023/05/23 10:21:44;;;;;;;6.22;3.80;;;;;;;21.28;49.19;64204.44;6142152;23;20416;-82
2023/05/23 10:24:14;;;;;;;4.35;3.58;;;;;;;21.46;47.94;64218.59;6144521;23;20198;-80
2023/05/23 10:26:41;;;;;;;2.97;2.88;;;;;;;21.60;50.15;64233.22;6140407;23;20200;-81
2023/05/23 10:29:08;;;;;;;4.38;3.08;;;;;;;21.51;47.55;64221.22;6141033;23;20175;-79
2023/05/23 10:31:35;;;;;;;3.00;2.80;;;;;;;21.65;46.53;64241.03;6140934;23;20206;-80
2023/05/23 10:34:17;;;;;;;4.90;3.60;;;;;;;21.76;44.51;64252.53;6144949;23;20178;-80
2023/05/23 10:36:53;;;;;;;5.88;3.10;;;;;;;21.89;46.81;64259.91;6142634;23;20224;-81
2023/05/23 10:39:34;;;;;;;6.40;3.80;;;;;;;22.00;45.88;64271.94;6144061;23;20218;-80
2023/05/23 10:42:06;;;;;;;4.57;3.17;;;;;;;22.00;42.52;64274.00;6143415;23;20248;-80
2023/05/23 10:44:33;;;;;;;3.47;3.20;;;;;;;21.89;45.66;64262.50;6143902;23;20210;-81
2023/05/23 10:47:02;;;;;;;3.78;3.28;;;;;;;22.12;46.75;64289.66;6147074;23;20214;-80
2023/05/23 10:49:40;;;;;;;3.65;3.30;;;;;;;22.18;47.64;64290.72;6144168;23;20174;-81
2023/05/23 10:52:08;;;;;;;5.82;3.35;;;;;;;22.23;47.63;64301.13;6148209;23;20197;-81
2023/05/23 10:54:41;;;;;;;3.60;3.35;;;;;;;22.39;47.94;64312.69;6144012;23;20234;-79
2023/05/23 10:57:10;;;;;;;4.20;3.47;;;;;;;22.41;43.25;64314.25;6143053;23;20562;-80
2023/05/23 10:59:38;;;;;;;3.92;3.65;;;;;;;22.42;48.16;64323.59;6144025;23;20199;-82
2023/05/23 11:02:12;;;;;;;3.22;3.03;;;;;;;22.23;45.92;64298.53;6145814;23;20227;-80
2023/05/23 11:04:40;;;;;;;2.80;2.58;;;;;;;22.16;45.87;64293.81;6146824;23;20190;-81
2023/05/23 11:07:27;;;;;;;3.03;2.80;;;;;;;22.17;44.76;64297.47;6142028;23;20236;-80
2023/05/23 11:10:09;;;;;;;3.05;2.80;;;;;;;22.33;42.53;64314.19;6144463;23;20190;-82
2023/05/23 11:12:41;;;;;;;3.55;3.25;;;;;;;22.42;42.95;64318.41;6143404;23;20194;-81
2023/05/23 11:15:20;;;;;;;3.67;3.13;;;;;;;22.43;40.24;64316.88;6142496;23;20226;-82
2023/05/23 11:17:53;;;;;;;2.88;2.70;;;;;;;22.40;40.25;64313.72;6144733;23;20233;-81
2023/05/23 11:20:22;;;;;;;6.82;2.78;;;;;;;22.28;40.96;64306.38;6143541;23;20242;-79
2023/05/23 11:23:01;;;;;;;4.55;3.22;;;;;;;22.12;41.48;64287.06;6142534;23;20258;-80
2023/05/23 11:25:44;;;;;;;3.30;3.10;;;;;;;22.08;41.90;64282.34;6144501;23;20175;-80
2023/05/23 11:28:13;;;;;;;3.47;3.17;;;;;;;22.08;41.67;64288.06;6141443;23;20364;-81
2023/05/23 11:30:40;;;;;;;3.42;2.75;;;;;;;22.24;44.30;64299.06;6146012;23;20222;-82
2023/05/23 11:33:12;;;;;;;3.67;3.22;;;;;;;22.25;39.80;64302.69;6144744;23;20195;-82
2023/05/23 11:35:39;;;;;;;3.30;3.05;;;;;;;22.23;40.33;64298.00;6142933;23;20163;-79
2023/05/23 11:38:07;;;;;;;3.78;2.95;;;;;;;22.11;40.76;64288.59;6143404;23;20213;-80
2023/05/23 11:40:35;;;;;;;3.40;3.20;;;;;;;21.90;41.86;64261.47;6141169;23;20202;-79
2023/05/23 11:43:05;;;;;;;3.53;2.75;;;;;;;21.94;41.57;64268.25;6141881;23;20191;-82
2023/05/23 11:45:33;;;;;;;3.42;3.22;;;;;;;22.24;44.31;64304.25;6145783;23;20170;-80
2023/05/23 11:48:05;;;;;;;2.92;2.60;;;;;;;22.47;39.38;64326.22;6140980;23;20243;-82
2023/05/23 11:50:33;;;;;;;3.92;3.63;;;;;;;22.34;42.38;64307.44;6144363;23;20234;-80
2023/05/23 11:53:00;;;;;;;4.20;3.72;;;;;;;22.60;41.07;64344.50;6141927;23;20202;-80
2023/05/23 11:55:28;;;;;;;2.80;2.70;;;;;;;22.60;38.64;64339.31;6141286;23;20225;-79
2023/05/23 11:57:56;;;;;;;2.97;2.28;;;;;;;22.71;37.42;64345.63;6141408;23;20543;-80
2023/05/23 12:00:25;;;;;;;3.22;3.03;;;;;;;22.36;39.17;64306.41;6141984;23;20187;-79
2023/05/23 12:02:52;;;;;;;3.60;3.08;;;;;;;22.42;41.15;64318.41;6140332;23;20245;-80
2023/05/23 12:05:19;;;;;;;3.13;2.88;;;;;;;22.72;41.34;64349.78;6144505;23;20171;-80
2023/05/23 12:07:48;;;;;;;3.35;3.15;;;;;;;23.09;41.05;64382.25;6146738;23;20248;-81
2023/05/23 12:10:18;;;;;;;4.07;3.10;;;;;;;23.52;41.51;64430.34;6146580;23;20175;-80
2023/05/23 12:12:46;;;;;;;4.03;3.72;;;;;;;23.54;38.16;64437.66;6140969;23;20191;-81
2023/05/23 12:15:13;;;;;;;2.83;2.55;;;;;;;23.53;38.83;64436.06;6143552;23;20178;-80
2023/05/23 12:17:49;;;;;;;3.22;2.78;;;;;;;24.13;41.39;64496.28;6142561;23;20202;-81
2023/05/23 12:20:16;;;;;;;2.92;2.72;;;;;;;24.33;36.73;64521.91;6143860;23;20279;-79
2023/05/23 12:22:44;;;;;;;3.20;2.90;;;;;;;24.39;36.25;64525.56;6145999;23;20199;-81
2023/05/23 12:25:11;;;;;;;2.78;2.35;;;;;;;24.40;35.43;64527.16;6142407;23;20390;-81
2023/05/23 12:27:42;;;;;;;3.95;3.13;;;;;;;24.48;37.42;64530.31;6140586;23;20257;-83
2023/05/23 12:30:11;;;;;;;5.38;3.30;;;;;;;24.59;36.50;64543.94;6142700;23;20175;-81
2023/05/23 12:32:40;;;;;;;3.10;2.90;;;;;;;24.83;35.79;64572.19;6141365;23;20213;-81
2023/05/23 12:35:12;;;;;;;4.00;3.60;;;;;;;23.86;36.55;64468.00;6141641;23;20217;-81
2023/05/23 12:37:41;;;;;;;3.72;3.40;;;;;;;24.10;38.76;64498.34;6145848;23;20191;-81
2023/05/23 12:40:16;;;;;;;4.22;3.17;;;;;;;24.34;39.22;64520.88;6141713;23;20171;-83
2023/05/23 12:42:54;;;;;;;6.25;3.50;;;;;;;24.69;38.00;64554.41;6144880;23;20210;-80
2023/05/23 12:45:27;;;;;;;3.42;3.22;;;;;;;25.03;36.54;64593.16;6141564;23;20177;-81
2023/05/23 12:47:54;;;;;;;3.00;2.78;;;;;;;25.03;36.08;64592.63;6140615;23;20238;-80
2023/05/23 12:50:23;;;;;;;3.40;3.20;;;;;;;24.89;34.59;64575.88;6145340;23;20163;-81
2023/05/23 12:52:51;;;;;;;4.60;3.00;;;;;;;24.97;35.03;64589.47;6140166;23;20258;-81
2023/05/23 12:55:18;;;;;;;3.05;2.85;;;;;;;25.39;36.15;64632.97;6141874;23;20179;-82
2023/05/23 12:57:51;;;;;;;3.72;3.42;;;;;;;25.41;34.61;64629.31;6144113;23;20194;-79
2023/05/23 13:00:19;;;;;;;4.82;3.00;;;;;;;25.54;33.95;64643.44;6141908;23;20227;-80
2023/05/23 13:02:46;;;;;;;4.45;3.13;;;;;;;25.05;35.96;64594.72;6141000;23;20266;-82
2023/05/23 13:05:14;;;;;;;3.40;3.20;;;;;;;24.88;38.60;64574.31;6144165;23;20175;-82
2023/05/23 13:07:43;;;;;;;3.30;3.03;;;;;;;25.42;35.08;64625.66;6141103;23;20218;-81
2023/05/23 13:10:10;;;;;;;3.97;3.08;;;;;;;25.39;34.65;64632.97;6139776;23;20166;-78
2023/05/23 13:12:38;;;;;;;3.83;3.58;;;;;;;25.40;35.29;64631.41;6140347;23;20202;-81
2023/05/23 13:15:06;;;;;;;3.25;2.90;;;;;;;25.00;33.92;64589.47;6140713;23;20198;-80
2023/05/23 13:17:33;;;;;;;3.00;2.80;;;;;;;24.67;31.93;64552.28;6143008;23;20231;-80
2023/05/23 13:20:00;;;;;;;3.65;3.35;;;;;;;24.54;32.49;64539.19;6143891;23;20183;-82
2023/05/23 13:22:29;;;;;;;3.60;3.30;;;;;;;24.11;33.19;64498.88;6142280;23;20257;-82
2023/05/23 13:24:58;;;;;;;2.80;2.65;;;;;;;24.13;34.86;64496.28;6142452;23;20171;-82
2023/05/23 13:27:25;;;;;;;3.50;3.22;;;;;;;24.85;35.14;64574.28;6146128;23;20201;-82
2023/05/23 13:29:52;;;;;;;3.15;2.95;;;;;;;25.62;33.31;64653.94;6142737;23;20170;-82
2023/05/23 13:32:19;;;;;;;4.50;3.58;;;;;;;26.16;33.12;64707.94;6143078;23;20198;-82
2023/05/23 13:34:47;;;;;;;3.58;3.30;;;;;;;26.37;31.72;64735.16;6144766;23;20179;-82
2023/05/23 13:37:15;;;;;;;3.00;2.80;;;;;;;26.58;27.50;64749.34;6142410;23;20410;-82
2023/05/23 13:39:43;;;;;;;3.20;3.00;;;;;;;26.66;29.58;64762.97;6141547;23;20171;-81
2023/05/23 13:42:11;;;;;;;3.15;2.95;;;;;;;26.73;30.16;64765.09;6143798;23;20207;-84
2023/05/23 13:44:39;;;;;;;3.80;3.50;;;;;;;27.11;29.54;64812.81;6141722;23;20237;-79
2023/05/23 13:47:16;;;;;;;2.95;2.75;;;;;;;26.85;30.16;64782.41;6141236;23;20577;-82
2023/05/23 13:49:43;;;;;;;4.10;3.78;;;;;;;27.06;29.79;64799.19;6143536;23;20218;-82
2023/05/23 13:52:10;;;;;;;3.47;3.28;;;;;;;27.02;29.61;64802.84;6142400;23;20198;-80
2023/05/23 13:54:37;;;;;;;4.13;3.58;;;;;;;26.72;31.28;64766.66;6140830;23;20178;-81
2023/05/23 13:57:06;;;;;;;2.83;2.63;;;;;;;27.03;31.26;64806.50;6141149;23;20199;-81
2023/05/23 13:59:34;;;;;;;3.67;3.38;;;;;;;26.91;30.33;64783.97;6140885;23;20432;-78
2023/05/23 14:02:02;;;;;;;3.45;3.20;;;;;;;26.67;30.30;64763.50;6137605;23;20573;-81
2023/05/23 14:04:29;;;;;;;3.38;3.08;;;;;;;26.33;30.25;64722.63;6139235;23;20475;-80
2023/05/23 14:06:56;;;;;;;3.53;3.22;;;;;;;25.50;30.18;64641.88;6141797;23;20198;-79
2023/05/23 14:09:23;;;;;;;3.20;3.00;;;;;;;25.09;31.63;64599.44;6138546;23;20201;-79
2023/05/23 14:11:50;;;;;;;3.35;3.08;;;;;;;24.79;31.42;64564.88;6139078;23;20202;-79
2023/05/23 14:14:18;;;;;;;2.97;2.78;;;;;;;24.33;31.28;64514.63;6140010;23;20186;-79
2023/05/23 14:16:47;;;;;;;3.47;3.17;;;;;;;24.22;31.45;64499.97;6139115;23;20190;-79
2023/05/23 14:19:14;;;;;;;3.08;2.70;;;;;;;24.23;30.97;64506.25;6138976;23;20167;-80
2023/05/23 14:21:41;;;;;;;3.20;2.92;;;;;;;24.58;30.06;64542.88;6140646;23;20500;-80
2023/05/23 14:24:08;;;;;;;2.90;2.80;;;;;;;24.61;29.92;64543.94;6141422;23;20479;-79
2023/05/23 14:26:36;;;;;;;3.85;2.85;;;;;;;25.00;29.27;64592.63;6139160;23;20245;-79
2023/05/23 14:29:03;;;;;;;3.55;2.83;;;;;;;25.85;28.47;64675.94;6140554;23;20185;-82